x

Sheboygan, Wi (sgnw3) Weather Station

11:00am - Sun 23rd Nov 2014 All times are CST. -6 hours from GMT.

  • Wind
    21mph, 22mph gusts
  • Sea Temp 40°f
  • Air Temp 45°f
  • Sea Pressure 1003.8mb
  • Sheboygan, Wi
  • Sheboygan, Wi

More Historic Weather Station data

Upgrade to MSW Pro to gain access to the past 30 days of data for over 8000 Wavebouys and Weather Stations around the globe.

Join Pro

Comparision Forecast

View Surf forecast
   
Sun 11/23 11:00am 21 22 mph 1003.8mb 40f 45f
10:00am 18 20 mph 1004.5mb 39f 44f
9:00am 18 20 mph 1005.1mb 39f 44f
8:00am 16 17 mph 1005.7mb 39f 44f
7:00am 18 20 mph 1005.6mb 39f 44f
6:00am 20
mph
1005.9mb 38f 45f
5:00am 20 21 mph 1005.9mb 38f 45f
4:00am 15 16 mph 1006.1mb 37f 44f
3:00am 14 15 mph 1006.6mb 38f 45f
2:00am 16 17 mph 1007.5mb 37f 46f
1:00am 18
mph
1007.4mb 36f 44f
12:00am 13
mph
1008.3mb 36f 44f
Sat 11/22 11:00pm 13
mph
1009mb 37f 44f
10:00pm 9 10 mph 1009.5mb 37f 44f
9:00pm 11
mph
1009.3mb 37f 43f
8:00pm 11 13 mph 1009.8mb 36f 44f
7:00pm 3
mph
1010.1mb 37f 44f
6:00pm 7 8 mph 1010.1mb 36f 43f
5:00pm 8
mph
1009.4mb 36f 42f
4:00pm 16 17 mph 1009.3mb 36f 41f
3:00pm 14 15 mph 1009.6mb 37f 41f
2:00pm 11 13 mph 1010mb 36f 41f
1:00pm 15 17 mph 1010.2mb 37f 42f
12:00pm 17 21 mph 1011mb 36f 41f
11:00am 15 18 mph 1012mb 36f 40f
10:00am 15 17 mph 1013mb 36f 38f
9:00am 13 14 mph 1013.6mb 36f 37f
8:00am 17 18 mph 1014.1mb 36f 36f
7:00am 16 20 mph 1014.3mb 36f 35f
6:00am 18 24 mph 1014.4mb 36f 35f
5:00am 16 20 mph 1015.1mb 35f 34f
4:00am 14 17 mph 1015.8mb 36f 35f
3:00am 22 26 mph 1016.6mb 36f 35f
2:00am 20 23 mph 1017.4mb 36f 34f
1:00am 24 28 mph 1017.9mb 35f 33f
12:00am 20 23 mph 1019mb 35f 32f
Fri 11/21 11:00pm 29 34 mph 1019.8mb 35f 32f
10:00pm 26 31 mph 1020.8mb 36f 32f
9:00pm 30 36 mph 1021.9mb 35f 33f
8:00pm 25 28 mph 1023mb 35f 32f
7:00pm 25 28 mph 1024.1mb 35f 31f
6:00pm 18 22 mph 1024.6mb 35f 32f
5:00pm 20 23 mph 1025.4mb 35f 31f
4:00pm 18 21 mph 1026mb 35f 31f
3:00pm 20 26 mph 1026.3mb 34f 30f
2:00pm 26 29 mph 1027mb 34f 28f
1:00pm 22 25 mph 1028.1mb 34f 27f
12:00pm 21 23 mph 1028.9mb 33f 26f
11:00am 15 17 mph 1030.2mb 33f 24f
10:00am 15 17 mph 1031mb 34f 21f
9:00am 10 11 mph 1031.2mb 34f 16f
8:00am 8 9 mph 1031mb 34f 12f
7:00am 11 13 mph 1030.4mb 33f 11f
6:00am 10 13 mph 1030.1mb 34f 11f
5:00am 13 15 mph 1029.7mb 34f 11f
4:00am 14 16 mph 1029mb 35f 11f
3:00am 13 15 mph 1028.5mb 35f 11f
2:00am 15 18 mph 1028.1mb 34f 11f
1:00am 14 16 mph 1027.3mb 34f 12f
12:00am 14 16 mph 1026.9mb 35f 12f
Thu 11/20 11:00pm 10 13 mph 1026mb 34f 13f
10:00pm 10 11 mph 1025.3mb 34f 14f
9:00pm 13 15 mph 1024.2mb 34f 15f
8:00pm 13 16 mph 1023.5mb 34f 16f
7:00pm 16 23 mph 1022.8mb 34f 16f
6:00pm 11 15 mph 1021.7mb 34f 16f
5:00pm 16 20 mph 1020.3mb 33f 18f
4:00pm 13 14 mph 1019.2mb 34f 19f
3:00pm 17 21 mph 1018mb 34f 20f
2:00pm 22 28 mph 1017.2mb 33f 19f
1:00pm 21 24 mph 1016.7mb 34f 19f
12:00pm 21 24 mph 1016.4mb 34f 19f
11:00am 24 30 mph 1016.2mb 34f 17f
10:00am 18 23 mph 1016mb 34f 17f
9:00am 22 28 mph 1015.1mb 33f 18f
8:00am 18 24 mph 1014.6mb 33f 19f
7:00am 13 16 mph 1014mb 33f 19f
6:00am 23 26 mph 1013.4mb 33f 20f
5:00am 10 11 mph 1013.1mb 33f 20f
4:00am 11 14 mph 1013mb 33f 20f
3:00am 16 22 mph 1013mb 33f 20f
2:00am 17 24 mph 1012.7mb 33f 21f
1:00am 15 18 mph 1012.5mb 33f 20f
12:00am 15 17 mph 1012.7mb 33f 20f
Wed 11/19 11:00pm 17 23 mph 1012.4mb 33f 21f
10:00pm 16 20 mph 1012.5mb 34f 21f
9:00pm 15 20 mph 1012.2mb 34f 21f
8:00pm 13 15 mph 1011.9mb 36f 21f
7:00pm 14 17 mph 1011.4mb 34f 22f